sensor_id;sensor_type;location;lat;lon;timestamp;pressure;altitude;pressure_sealevel;temperature;humidity
74790;BME280;63318;52.406;13.416;2023-06-05T00:02:25;101790.34;;;11.58;54.38
74790;BME280;63318;52.406;13.416;2023-06-05T00:04:53;101797.23;;;11.54;54.14
74790;BME280;63318;52.406;13.416;2023-06-05T00:07:21;101798.63;;;11.51;54.53
74790;BME280;63318;52.406;13.416;2023-06-05T00:09:49;101799.58;;;11.47;54.47
74790;BME280;63318;52.406;13.416;2023-06-05T00:12:17;101799.73;;;11.43;54.80
74790;BME280;63318;52.406;13.416;2023-06-05T00:14:46;101796.71;;;11.39;54.61
74790;BME280;63318;52.406;13.416;2023-06-05T00:17:14;101795.37;;;11.35;54.96
74790;BME280;63318;52.406;13.416;2023-06-05T00:19:42;101795.79;;;11.30;55.24
74790;BME280;63318;52.406;13.416;2023-06-05T00:22:10;101796.95;;;11.25;55.43
74790;BME280;63318;52.406;13.416;2023-06-05T00:24:38;101793.78;;;11.20;55.68
74790;BME280;63318;52.406;13.416;2023-06-05T00:27:07;101798.05;;;11.15;55.87
74790;BME280;63318;52.406;13.416;2023-06-05T00:29:35;101793.98;;;11.12;56.34
74790;BME280;63318;52.406;13.416;2023-06-05T00:32:04;101799.54;;;11.08;55.97
74790;BME280;63318;52.406;13.416;2023-06-05T00:34:32;101798.81;;;11.05;55.96
74790;BME280;63318;52.406;13.416;2023-06-05T00:37:00;101798.82;;;11.02;56.19
74790;BME280;63318;52.406;13.416;2023-06-05T00:39:28;101797.48;;;10.99;56.39
74790;BME280;63318;52.406;13.416;2023-06-05T00:41:57;101797.69;;;10.95;56.45
74790;BME280;63318;52.406;13.416;2023-06-05T00:44:25;101797.14;;;10.92;56.30
74790;BME280;63318;52.406;13.416;2023-06-05T00:46:53;101796.01;;;10.89;56.76
74790;BME280;63318;52.406;13.416;2023-06-05T00:49:22;101801.07;;;10.85;57.25
74790;BME280;63318;52.406;13.416;2023-06-05T00:51:51;101803.39;;;10.82;56.95
74790;BME280;63318;52.406;13.416;2023-06-05T00:54:19;101799.89;;;10.78;56.96
74790;BME280;63318;52.406;13.416;2023-06-05T00:56:48;101800.45;;;10.75;56.91
74790;BME280;63318;52.406;13.416;2023-06-05T00:59:16;101797.83;;;10.72;57.37
74790;BME280;63318;52.406;13.416;2023-06-05T01:01:45;101794.42;;;10.69;57.38
74790;BME280;63318;52.406;13.416;2023-06-05T01:04:13;101793.25;;;10.66;57.57
74790;BME280;63318;52.406;13.416;2023-06-05T01:06:41;101794.70;;;10.63;57.25
74790;BME280;63318;52.406;13.416;2023-06-05T01:09:10;101793.10;;;10.60;57.26
74790;BME280;63318;52.406;13.416;2023-06-05T01:11:43;101792.77;;;10.58;57.18
74790;BME280;63318;52.406;13.416;2023-06-05T01:14:17;101791.19;;;10.56;57.48
74790;BME280;63318;52.406;13.416;2023-06-05T01:16:49;101790.88;;;10.55;57.33
74790;BME280;63318;52.406;13.416;2023-06-05T01:19:19;101786.63;;;10.54;56.95
74790;BME280;63318;52.406;13.416;2023-06-05T01:21:47;101791.56;;;10.53;56.58
74790;BME280;63318;52.406;13.416;2023-06-05T01:24:16;101790.44;;;10.53;56.58
74790;BME280;63318;52.406;13.416;2023-06-05T01:26:52;101791.17;;;10.53;56.72
74790;BME280;63318;52.406;13.416;2023-06-05T01:29:25;101790.45;;;10.53;56.92
74790;BME280;63318;52.406;13.416;2023-06-05T01:31:59;101792.14;;;10.52;57.10
74790;BME280;63318;52.406;13.416;2023-06-05T01:34:30;101788.88;;;10.50;56.82
74790;BME280;63318;52.406;13.416;2023-06-05T01:36:58;101793.48;;;10.48;57.18
74790;BME280;63318;52.406;13.416;2023-06-05T01:39:28;101794.96;;;10.48;57.03
74790;BME280;63318;52.406;13.416;2023-06-05T01:41:58;101792.81;;;10.46;57.05
74790;BME280;63318;52.406;13.416;2023-06-05T01:44:27;101794.39;;;10.44;57.34
74790;BME280;63318;52.406;13.416;2023-06-05T01:46:56;101793.85;;;10.42;57.07
74790;BME280;63318;52.406;13.416;2023-06-05T01:49:24;101789.26;;;10.41;57.05
74790;BME280;63318;52.406;13.416;2023-06-05T01:51:53;101794.13;;;10.39;56.84
74790;BME280;63318;52.406;13.416;2023-06-05T01:54:21;101790.72;;;10.38;56.87
74790;BME280;63318;52.406;13.416;2023-06-05T01:56:50;101793.05;;;10.38;56.98
74790;BME280;63318;52.406;13.416;2023-06-05T01:59:18;101790.98;;;10.38;56.60
74790;BME280;63318;52.406;13.416;2023-06-05T02:01:46;101791.82;;;10.37;56.75
74790;BME280;63318;52.406;13.416;2023-06-05T02:04:14;101793.02;;;10.37;56.97
74790;BME280;63318;52.406;13.416;2023-06-05T02:06:42;101795.06;;;10.36;56.97
74790;BME280;63318;52.406;13.416;2023-06-05T02:09:11;101788.46;;;10.34;57.17
74790;BME280;63318;52.406;13.416;2023-06-05T02:11:40;101784.93;;;10.33;57.10
74790;BME280;63318;52.406;13.416;2023-06-05T02:14:08;101781.02;;;10.31;56.94
74790;BME280;63318;52.406;13.416;2023-06-05T02:16:36;101777.38;;;10.29;57.01
74790;BME280;63318;52.406;13.416;2023-06-05T02:19:05;101775.23;;;10.28;57.10
74790;BME280;63318;52.406;13.416;2023-06-05T02:21:33;101773.54;;;10.27;56.93
74790;BME280;63318;52.406;13.416;2023-06-05T02:24:02;101773.02;;;10.25;57.15
74790;BME280;63318;52.406;13.416;2023-06-05T02:26:30;101768.99;;;10.24;57.00
74790;BME280;63318;52.406;13.416;2023-06-05T02:28:59;101766.34;;;10.22;57.24
74790;BME280;63318;52.406;13.416;2023-06-05T02:31:27;101764.41;;;10.20;57.45
74790;BME280;63318;52.406;13.416;2023-06-05T02:33:56;101763.32;;;10.18;57.24
74790;BME280;63318;52.406;13.416;2023-06-05T02:36:24;101765.39;;;10.17;57.65
74790;BME280;63318;52.406;13.416;2023-06-05T02:38:53;101761.67;;;10.14;57.73
74790;BME280;63318;52.406;13.416;2023-06-05T02:41:21;101762.51;;;10.12;57.85
74790;BME280;63318;52.406;13.416;2023-06-05T02:43:49;101765.10;;;10.09;58.00
74790;BME280;63318;52.406;13.416;2023-06-05T02:46:18;101763.32;;;10.07;57.92
74790;BME280;63318;52.406;13.416;2023-06-05T02:48:46;101762.09;;;10.04;58.49
74790;BME280;63318;52.406;13.416;2023-06-05T02:51:14;101762.33;;;10.01;58.17
74790;BME280;63318;52.406;13.416;2023-06-05T02:53:43;101759.53;;;9.98;58.30
74790;BME280;63318;52.406;13.416;2023-06-05T02:56:11;101758.03;;;9.96;58.75
74790;BME280;63318;52.406;13.416;2023-06-05T02:58:39;101756.50;;;9.94;59.27
74790;BME280;63318;52.406;13.416;2023-06-05T03:01:08;101756.10;;;9.91;59.08
74790;BME280;63318;52.406;13.416;2023-06-05T03:03:36;101756.48;;;9.88;59.65
74790;BME280;63318;52.406;13.416;2023-06-05T03:06:05;101757.19;;;9.85;59.33
74790;BME280;63318;52.406;13.416;2023-06-05T03:08:34;101757.36;;;9.83;59.80
74790;BME280;63318;52.406;13.416;2023-06-05T03:11:03;101753.52;;;9.80;59.47
74790;BME280;63318;52.406;13.416;2023-06-05T03:13:33;101754.59;;;9.78;59.82
74790;BME280;63318;52.406;13.416;2023-06-05T03:16:01;101755.83;;;9.76;59.92
74790;BME280;63318;52.406;13.416;2023-06-05T03:18:30;101755.44;;;9.75;60.26
74790;BME280;63318;52.406;13.416;2023-06-05T03:20:58;101751.90;;;9.74;60.11
74790;BME280;63318;52.406;13.416;2023-06-05T03:23:27;101752.10;;;9.73;60.27
74790;BME280;63318;52.406;13.416;2023-06-05T03:25:56;101751.26;;;9.72;60.66
74790;BME280;63318;52.406;13.416;2023-06-05T03:28:25;101749.86;;;9.72;60.75
74790;BME280;63318;52.406;13.416;2023-06-05T03:30:53;101752.14;;;9.72;60.75
74790;BME280;63318;52.406;13.416;2023-06-05T03:33:22;101753.07;;;9.71;60.42
74790;BME280;63318;52.406;13.416;2023-06-05T03:35:50;101753.91;;;9.71;60.58
74790;BME280;63318;52.406;13.416;2023-06-05T03:38:18;101753.12;;;9.71;60.57
74790;BME280;63318;52.406;13.416;2023-06-05T03:40:46;101751.41;;;9.71;60.96
74790;BME280;63318;52.406;13.416;2023-06-05T03:43:15;101756.09;;;9.72;60.99
74790;BME280;63318;52.406;13.416;2023-06-05T03:45:43;101757.22;;;9.73;60.77
74790;BME280;63318;52.406;13.416;2023-06-05T03:48:11;101758.73;;;9.74;60.99
74790;BME280;63318;52.406;13.416;2023-06-05T03:50:39;101763.17;;;9.76;60.72
74790;BME280;63318;52.406;13.416;2023-06-05T03:53:08;101762.02;;;9.79;60.51
74790;BME280;63318;52.406;13.416;2023-06-05T03:55:36;101762.70;;;9.83;60.46
74790;BME280;63318;52.406;13.416;2023-06-05T03:58:04;101765.41;;;9.87;60.41
74790;BME280;63318;52.406;13.416;2023-06-05T04:00:32;101765.27;;;9.91;60.12
74790;BME280;63318;52.406;13.416;2023-06-05T04:03:01;101762.52;;;9.96;60.53
74790;BME280;63318;52.406;13.416;2023-06-05T04:05:29;101764.36;;;10.00;60.57
74790;BME280;63318;52.406;13.416;2023-06-05T04:07:57;101767.79;;;10.05;60.55
74790;BME280;63318;52.406;13.416;2023-06-05T04:10:25;101772.36;;;10.10;60.46
74790;BME280;63318;52.406;13.416;2023-06-05T04:12:54;101776.16;;;10.16;60.37
74790;BME280;63318;52.406;13.416;2023-06-05T04:15:22;101775.27;;;10.22;60.31
74790;BME280;63318;52.406;13.416;2023-06-05T04:17:51;101775.33;;;10.27;60.28
74790;BME280;63318;52.406;13.416;2023-06-05T04:20:19;101777.53;;;10.34;60.58
74790;BME280;63318;52.406;13.416;2023-06-05T04:22:48;101776.80;;;10.40;60.53
74790;BME280;63318;52.406;13.416;2023-06-05T04:25:17;101779.32;;;10.46;60.23
74790;BME280;63318;52.406;13.416;2023-06-05T04:27:47;101780.77;;;10.52;60.28
74790;BME280;63318;52.406;13.416;2023-06-05T04:30:16;101777.27;;;10.58;60.38
74790;BME280;63318;52.406;13.416;2023-06-05T04:32:44;101776.23;;;10.65;60.21
74790;BME280;63318;52.406;13.416;2023-06-05T04:35:13;101776.52;;;10.71;61.01
74790;BME280;63318;52.406;13.416;2023-06-05T04:37:41;101766.64;;;10.78;61.57
74790;BME280;63318;52.406;13.416;2023-06-05T04:40:10;101769.61;;;10.85;61.46
74790;BME280;63318;52.406;13.416;2023-06-05T04:42:38;101765.83;;;10.92;60.84
74790;BME280;63318;52.406;13.416;2023-06-05T04:45:08;101766.73;;;10.98;60.62
74790;BME280;63318;52.406;13.416;2023-06-05T04:47:36;101764.41;;;11.06;60.37
74790;BME280;63318;52.406;13.416;2023-06-05T04:50:06;101765.54;;;11.13;60.23
74790;BME280;63318;52.406;13.416;2023-06-05T04:52:35;101765.52;;;11.23;60.36
74790;BME280;63318;52.406;13.416;2023-06-05T04:55:04;101764.76;;;11.31;60.28
74790;BME280;63318;52.406;13.416;2023-06-05T04:57:32;101764.06;;;11.40;60.23
74790;BME280;63318;52.406;13.416;2023-06-05T05:00:00;101758.96;;;11.48;59.91
74790;BME280;63318;52.406;13.416;2023-06-05T05:02:29;101759.75;;;11.56;59.82
74790;BME280;63318;52.406;13.416;2023-06-05T05:04:57;101760.14;;;11.66;59.78
74790;BME280;63318;52.406;13.416;2023-06-05T05:07:25;101760.73;;;11.75;59.76
74790;BME280;63318;52.406;13.416;2023-06-05T05:09:53;101765.73;;;11.83;59.67
74790;BME280;63318;52.406;13.416;2023-06-05T05:12:21;101763.35;;;11.92;59.52
74790;BME280;63318;52.406;13.416;2023-06-05T05:14:50;101765.83;;;12.02;59.51
74790;BME280;63318;52.406;13.416;2023-06-05T05:17:18;101768.80;;;12.13;59.44
74790;BME280;63318;52.406;13.416;2023-06-05T05:19:46;101766.91;;;12.22;59.39
74790;BME280;63318;52.406;13.416;2023-06-05T05:22:15;101767.76;;;12.32;59.16
74790;BME280;63318;52.406;13.416;2023-06-05T05:24:43;101770.80;;;12.44;59.11
74790;BME280;63318;52.406;13.416;2023-06-05T05:27:11;101767.41;;;12.55;59.05
74790;BME280;63318;52.406;13.416;2023-06-05T05:29:41;101765.69;;;12.67;58.64
74790;BME280;63318;52.406;13.416;2023-06-05T05:32:10;101762.01;;;12.82;58.54
74790;BME280;63318;52.406;13.416;2023-06-05T05:34:39;101762.40;;;13.00;58.18
74790;BME280;63318;52.406;13.416;2023-06-05T05:37:09;101763.83;;;13.20;58.12
74790;BME280;63318;52.406;13.416;2023-06-05T05:39:38;101763.55;;;13.43;58.07
74790;BME280;63318;52.406;13.416;2023-06-05T05:42:07;101767.39;;;13.66;57.94
74790;BME280;63318;52.406;13.416;2023-06-05T05:44:37;101771.00;;;13.90;57.58
74790;BME280;63318;52.406;13.416;2023-06-05T05:47:05;101771.63;;;14.14;57.24
74790;BME280;63318;52.406;13.416;2023-06-05T05:49:34;101772.44;;;14.41;57.00
74790;BME280;63318;52.406;13.416;2023-06-05T05:52:02;101771.55;;;14.68;56.31
74790;BME280;63318;52.406;13.416;2023-06-05T05:54:30;101771.77;;;14.96;55.93
74790;BME280;63318;52.406;13.416;2023-06-05T05:56:59;101771.00;;;15.27;55.47
74790;BME280;63318;52.406;13.416;2023-06-05T05:59:27;101776.20;;;15.60;54.73
74790;BME280;63318;52.406;13.416;2023-06-05T06:01:56;101777.14;;;15.94;54.29
74790;BME280;63318;52.406;13.416;2023-06-05T06:04:24;101778.39;;;16.24;53.08
74790;BME280;63318;52.406;13.416;2023-06-05T06:06:53;101779.11;;;16.54;52.44
74790;BME280;63318;52.406;13.416;2023-06-05T06:09:21;101782.52;;;16.85;52.12
74790;BME280;63318;52.406;13.416;2023-06-05T06:11:49;101784.61;;;17.16;51.27
74790;BME280;63318;52.406;13.416;2023-06-05T06:14:17;101786.77;;;17.46;50.78
74790;BME280;63318;52.406;13.416;2023-06-05T06:16:46;101787.23;;;17.76;49.92
74790;BME280;63318;52.406;13.416;2023-06-05T06:19:14;101785.83;;;18.07;49.83
74790;BME280;63318;52.406;13.416;2023-06-05T06:21:42;101789.55;;;18.39;49.36
74790;BME280;63318;52.406;13.416;2023-06-05T06:24:10;101785.11;;;18.70;50.09
74790;BME280;63318;52.406;13.416;2023-06-05T06:26:39;101786.79;;;19.00;48.38
74790;BME280;63318;52.406;13.416;2023-06-05T06:29:13;101784.84;;;19.27;47.57
74790;BME280;63318;52.406;13.416;2023-06-05T06:31:42;101779.14;;;19.55;46.13
74790;BME280;63318;52.406;13.416;2023-06-05T06:34:10;101780.50;;;19.82;45.65
74790;BME280;63318;52.406;13.416;2023-06-05T06:36:38;101779.71;;;20.10;45.64
74790;BME280;63318;52.406;13.416;2023-06-05T06:39:07;101785.56;;;20.38;44.36
74790;BME280;63318;52.406;13.416;2023-06-05T06:41:39;101787.48;;;20.69;43.79
74790;BME280;63318;52.406;13.416;2023-06-05T06:44:07;101788.36;;;20.97;42.85
74790;BME280;63318;52.406;13.416;2023-06-05T06:46:36;101790.00;;;21.22;41.90
74790;BME280;63318;52.406;13.416;2023-06-05T06:49:04;101786.08;;;21.49;41.48
74790;BME280;63318;52.406;13.416;2023-06-05T06:51:33;101784.84;;;21.70;40.75
74790;BME280;63318;52.406;13.416;2023-06-05T06:54:01;101783.36;;;21.94;40.22
74790;BME280;63318;52.406;13.416;2023-06-05T06:56:29;101785.29;;;22.24;39.95
74790;BME280;63318;52.406;13.416;2023-06-05T06:58:58;101785.73;;;22.51;38.44
74790;BME280;63318;52.406;13.416;2023-06-05T07:01:26;101782.86;;;22.75;37.98
74790;BME280;63318;52.406;13.416;2023-06-05T07:03:56;101783.55;;;23.00;39.68
74790;BME280;63318;52.406;13.416;2023-06-05T07:06:24;101784.66;;;23.26;37.61
74790;BME280;63318;52.406;13.416;2023-06-05T07:08:52;101783.10;;;23.50;35.94
74790;BME280;63318;52.406;13.416;2023-06-05T07:11:21;101778.73;;;23.71;36.16
74790;BME280;63318;52.406;13.416;2023-06-05T07:13:51;101778.16;;;23.93;35.96
74790;BME280;63318;52.406;13.416;2023-06-05T07:16:19;101776.81;;;24.17;35.94
74790;BME280;63318;52.406;13.416;2023-06-05T07:18:47;101775.40;;;24.43;34.93
74790;BME280;63318;52.406;13.416;2023-06-05T07:21:16;101778.42;;;24.67;34.85
74790;BME280;63318;52.406;13.416;2023-06-05T07:23:44;101774.35;;;24.88;33.54
74790;BME280;63318;52.406;13.416;2023-06-05T07:26:15;101774.07;;;25.03;32.71
74790;BME280;63318;52.406;13.416;2023-06-05T07:28:43;101769.27;;;25.16;32.46
74790;BME280;63318;52.406;13.416;2023-06-05T07:31:11;101767.70;;;25.34;32.77
74790;BME280;63318;52.406;13.416;2023-06-05T07:33:39;101767.55;;;25.57;32.57
74790;BME280;63318;52.406;13.416;2023-06-05T07:36:09;101773.30;;;25.79;32.01
74790;BME280;63318;52.406;13.416;2023-06-05T07:38:38;101773.30;;;25.92;30.88
74790;BME280;63318;52.406;13.416;2023-06-05T07:41:06;101772.08;;;26.08;30.54
74790;BME280;63318;52.406;13.416;2023-06-05T07:43:34;101768.00;;;26.26;31.45
74790;BME280;63318;52.406;13.416;2023-06-05T07:46:03;101770.89;;;26.42;30.24
74790;BME280;63318;52.406;13.416;2023-06-05T07:48:31;101767.61;;;26.58;30.17
74790;BME280;63318;52.406;13.416;2023-06-05T07:50:59;101767.59;;;26.74;29.44
74790;BME280;63318;52.406;13.416;2023-06-05T07:53:27;101770.55;;;26.90;28.20
74790;BME280;63318;52.406;13.416;2023-06-05T07:55:56;101766.98;;;27.07;29.50
74790;BME280;63318;52.406;13.416;2023-06-05T07:58:25;101769.52;;;27.25;29.05
74790;BME280;63318;52.406;13.416;2023-06-05T08:00:54;101770.73;;;27.33;28.14
74790;BME280;63318;52.406;13.416;2023-06-05T08:03:22;101773.41;;;27.46;27.91
74790;BME280;63318;52.406;13.416;2023-06-05T08:05:53;101768.48;;;27.62;27.99
74790;BME280;63318;52.406;13.416;2023-06-05T08:08:23;101766.80;;;27.77;27.15
74790;BME280;63318;52.406;13.416;2023-06-05T08:10:51;101770.42;;;27.93;27.29
74790;BME280;63318;52.406;13.416;2023-06-05T08:13:20;101765.03;;;28.09;26.62
74790;BME280;63318;52.406;13.416;2023-06-05T08:15:48;101759.82;;;28.26;26.04
74790;BME280;63318;52.406;13.416;2023-06-05T08:18:17;101755.61;;;28.40;26.54
74790;BME280;63318;52.406;13.416;2023-06-05T08:20:46;101756.91;;;28.56;26.42
74790;BME280;63318;52.406;13.416;2023-06-05T08:23:14;101755.86;;;28.73;26.11
74790;BME280;63318;52.406;13.416;2023-06-05T08:25:43;101753.23;;;28.89;25.13
74790;BME280;63318;52.406;13.416;2023-06-05T08:28:11;101754.50;;;29.02;24.47
74790;BME280;63318;52.406;13.416;2023-06-05T08:30:39;101752.44;;;29.12;24.45
74790;BME280;63318;52.406;13.416;2023-06-05T08:33:08;101751.95;;;29.22;25.23
74790;BME280;63318;52.406;13.416;2023-06-05T08:35:36;101744.64;;;29.28;24.14
74790;BME280;63318;52.406;13.416;2023-06-05T08:38:05;101744.44;;;29.34;24.35
74790;BME280;63318;52.406;13.416;2023-06-05T08:40:34;101742.64;;;29.38;24.37
74790;BME280;63318;52.406;13.416;2023-06-05T08:43:02;101742.73;;;29.43;24.48
74790;BME280;63318;52.406;13.416;2023-06-05T08:45:32;101737.83;;;29.47;23.97
74790;BME280;63318;52.406;13.416;2023-06-05T08:48:02;101739.39;;;29.59;23.81
74790;BME280;63318;52.406;13.416;2023-06-05T08:50:31;101737.84;;;29.64;23.47
74790;BME280;63318;52.406;13.416;2023-06-05T08:53:00;101733.63;;;29.66;23.59
74790;BME280;63318;52.406;13.416;2023-06-05T08:55:30;101731.26;;;29.67;23.10
74790;BME280;63318;52.406;13.416;2023-06-05T08:57:59;101730.61;;;29.67;23.43
74790;BME280;63318;52.406;13.416;2023-06-05T09:00:28;101731.71;;;29.73;22.85
74790;BME280;63318;52.406;13.416;2023-06-05T09:02:57;101735.46;;;29.83;22.99
74790;BME280;63318;52.406;13.416;2023-06-05T09:05:26;101729.27;;;29.81;22.69
74790;BME280;63318;52.406;13.416;2023-06-05T09:07:54;101728.67;;;29.76;22.81
74790;BME280;63318;52.406;13.416;2023-06-05T09:10:27;101732.55;;;29.85;23.49
74790;BME280;63318;52.406;13.416;2023-06-05T09:12:57;101729.20;;;29.94;22.59
74790;BME280;63318;52.406;13.416;2023-06-05T09:15:26;101727.61;;;29.92;22.25
74790;BME280;63318;52.406;13.416;2023-06-05T09:18:12;101731.54;;;29.88;22.74
74790;BME280;63318;52.406;13.416;2023-06-05T09:20:41;101726.64;;;29.80;22.26
74790;BME280;63318;52.406;13.416;2023-06-05T09:23:28;101725.75;;;29.80;22.69
74790;BME280;63318;52.406;13.416;2023-06-05T09:25:58;101730.77;;;29.95;22.17
74790;BME280;63318;52.406;13.416;2023-06-05T09:28:27;101733.73;;;30.00;22.03
74790;BME280;63318;52.406;13.416;2023-06-05T09:31:00;101734.55;;;29.96;21.86
74790;BME280;63318;52.406;13.416;2023-06-05T09:33:29;101729.17;;;29.97;22.09
74790;BME280;63318;52.406;13.416;2023-06-05T09:36:09;101727.73;;;30.04;21.67
74790;BME280;63318;52.406;13.416;2023-06-05T09:38:38;101723.45;;;30.03;22.10
74790;BME280;63318;52.406;13.416;2023-06-05T09:41:08;101721.25;;;30.08;22.39
74790;BME280;63318;52.406;13.416;2023-06-05T09:43:38;101721.53;;;30.14;21.55
74790;BME280;63318;52.406;13.416;2023-06-05T09:46:11;101715.02;;;30.21;21.86
74790;BME280;63318;52.406;13.416;2023-06-05T09:48:40;101711.98;;;30.26;21.79
74790;BME280;63318;52.406;13.416;2023-06-05T09:51:13;101713.11;;;30.25;22.36
74790;BME280;63318;52.406;13.416;2023-06-05T09:53:45;101713.23;;;30.36;21.58
74790;BME280;63318;52.406;13.416;2023-06-05T09:56:15;101706.98;;;30.40;21.52
74790;BME280;63318;52.406;13.416;2023-06-05T09:58:46;101707.20;;;30.54;21.73
74790;BME280;63318;52.406;13.416;2023-06-05T10:01:17;101710.02;;;30.67;21.95
74790;BME280;63318;52.406;13.416;2023-06-05T10:03:47;101701.48;;;30.77;21.23
74790;BME280;63318;52.406;13.416;2023-06-05T10:06:17;101702.35;;;30.74;21.34
74790;BME280;63318;52.406;13.416;2023-06-05T10:08:45;101696.12;;;30.80;21.39
74790;BME280;63318;52.406;13.416;2023-06-05T10:11:15;101693.41;;;30.80;21.18
74790;BME280;63318;52.406;13.416;2023-06-05T10:13:45;101686.24;;;30.72;21.80
74790;BME280;63318;52.406;13.416;2023-06-05T10:16:15;101685.97;;;30.64;21.03
74790;BME280;63318;52.406;13.416;2023-06-05T10:18:46;101686.95;;;30.64;21.44
74790;BME280;63318;52.406;13.416;2023-06-05T10:21:16;101682.70;;;30.65;21.26
74790;BME280;63318;52.406;13.416;2023-06-05T10:23:49;101681.27;;;30.68;21.24
74790;BME280;63318;52.406;13.416;2023-06-05T10:26:26;101675.93;;;30.68;21.00
74790;BME280;63318;52.406;13.416;2023-06-05T10:29:14;101675.92;;;30.78;21.07
74790;BME280;63318;52.406;13.416;2023-06-05T10:31:51;101673.27;;;30.93;21.03
74790;BME280;63318;52.406;13.416;2023-06-05T10:34:32;101665.08;;;31.06;21.23
74790;BME280;63318;52.406;13.416;2023-06-05T10:39:55;101664.08;;;31.18;20.82
74790;BME280;63318;52.406;13.416;2023-06-05T10:42:27;101661.05;;;31.26;20.79
74790;BME280;63318;52.406;13.416;2023-06-05T10:44:57;101662.09;;;31.31;20.41
74790;BME280;63318;52.406;13.416;2023-06-05T10:47:51;101662.63;;;31.35;20.06
74790;BME280;63318;52.406;13.416;2023-06-05T10:50:27;101661.37;;;31.32;20.03
74790;BME280;63318;52.406;13.416;2023-06-05T10:52:57;101656.66;;;31.36;19.71
74790;BME280;63318;52.406;13.416;2023-06-05T10:55:26;101654.14;;;31.44;20.28
74790;BME280;63318;52.406;13.416;2023-06-05T10:58:11;101651.08;;;31.56;20.02
74790;BME280;63318;52.406;13.416;2023-06-05T11:01:19;101648.23;;;31.69;19.91
74790;BME280;63318;52.406;13.416;2023-06-05T11:03:58;101640.44;;;31.70;18.99
74790;BME280;63318;52.406;13.416;2023-06-05T11:06:26;101645.18;;;31.58;19.07
74790;BME280;63318;52.406;13.416;2023-06-05T11:09:12;101640.43;;;31.52;19.64
74790;BME280;63318;52.406;13.416;2023-06-05T11:11:57;101641.73;;;31.58;19.72
74790;BME280;63318;52.406;13.416;2023-06-05T11:14:26;101644.17;;;31.56;19.21
74790;BME280;63318;52.406;13.416;2023-06-05T11:17:26;101640.34;;;31.51;19.07
74790;BME280;63318;52.406;13.416;2023-06-05T11:19:55;101641.78;;;31.47;19.21
74790;BME280;63318;52.406;13.416;2023-06-05T11:22:23;101637.71;;;31.52;19.58
74790;BME280;63318;52.406;13.416;2023-06-05T11:27:52;101632.96;;;31.59;19.25
74790;BME280;63318;52.406;13.416;2023-06-05T11:30:23;101634.09;;;31.67;19.07
74790;BME280;63318;52.406;13.416;2023-06-05T11:32:52;101637.27;;;31.73;19.10
74790;BME280;63318;52.406;13.416;2023-06-05T11:35:22;101629.74;;;31.76;18.87
74790;BME280;63318;52.406;13.416;2023-06-05T11:38:07;101633.80;;;31.79;18.73
74790;BME280;63318;52.406;13.416;2023-06-05T11:40:37;101631.59;;;31.89;18.75
74790;BME280;63318;52.406;13.416;2023-06-05T11:43:06;101614.73;;;31.88;19.09
74790;BME280;63318;52.406;13.416;2023-06-05T11:45:35;101615.08;;;31.89;18.97
74790;BME280;63318;52.406;13.416;2023-06-05T11:48:08;101612.23;;;31.93;18.55
74790;BME280;63318;52.406;13.416;2023-06-05T11:50:38;101613.61;;;31.98;18.75
74790;BME280;63318;52.406;13.416;2023-06-05T11:53:08;101604.72;;;32.04;19.24
74790;BME280;63318;52.406;13.416;2023-06-05T11:55:36;101601.86;;;32.05;18.46
74790;BME280;63318;52.406;13.416;2023-06-05T11:58:05;101605.73;;;31.99;18.49
74790;BME280;63318;52.406;13.416;2023-06-05T12:00:33;101604.49;;;31.91;18.55
74790;BME280;63318;52.406;13.416;2023-06-05T12:03:01;101601.34;;;31.76;18.45
74790;BME280;63318;52.406;13.416;2023-06-05T12:05:32;101604.02;;;31.73;18.97
74790;BME280;63318;52.406;13.416;2023-06-05T12:08:23;101607.77;;;31.79;18.60
74790;BME280;63318;52.406;13.416;2023-06-05T12:10:51;101596.19;;;31.80;18.32
74790;BME280;63318;52.406;13.416;2023-06-05T12:13:20;101589.64;;;31.73;18.41
74790;BME280;63318;52.406;13.416;2023-06-05T12:15:59;101584.00;;;31.74;18.73
74790;BME280;63318;52.406;13.416;2023-06-05T12:18:33;101582.20;;;31.76;18.43
74790;BME280;63318;52.406;13.416;2023-06-05T12:21:02;101580.79;;;31.75;18.99
74790;BME280;63318;52.406;13.416;2023-06-05T12:23:31;101576.68;;;31.74;19.13
74790;BME280;63318;52.406;13.416;2023-06-05T12:26:04;101577.70;;;31.70;19.09
74790;BME280;63318;52.406;13.416;2023-06-05T12:28:33;101578.39;;;31.72;19.03
74790;BME280;63318;52.406;13.416;2023-06-05T12:31:01;101577.36;;;31.77;18.74
74790;BME280;63318;52.406;13.416;2023-06-05T12:33:30;101573.08;;;31.75;18.69
74790;BME280;63318;52.406;13.416;2023-06-05T12:36:08;101574.57;;;31.76;18.53
74790;BME280;63318;52.406;13.416;2023-06-05T12:38:40;101572.39;;;31.72;18.97
74790;BME280;63318;52.406;13.416;2023-06-05T12:41:08;101571.35;;;31.66;18.72
74790;BME280;63318;52.406;13.416;2023-06-05T12:43:37;101571.71;;;31.51;18.36
74790;BME280;63318;52.406;13.416;2023-06-05T12:46:06;101568.00;;;31.34;18.77
74790;BME280;63318;52.406;13.416;2023-06-05T12:48:34;101561.66;;;31.24;18.93
74790;BME280;63318;52.406;13.416;2023-06-05T12:51:06;101562.16;;;31.16;18.74
74790;BME280;63318;52.406;13.416;2023-06-05T12:53:34;101554.81;;;31.13;19.18
74790;BME280;63318;52.406;13.416;2023-06-05T12:56:02;101552.66;;;31.18;18.96
74790;BME280;63318;52.406;13.416;2023-06-05T12:58:31;101548.79;;;31.26;18.53
74790;BME280;63318;52.406;13.416;2023-06-05T13:00:59;101546.90;;;31.34;18.47